KOLE/OLE METAR and TAF weather

Enter ICAO airport designator
Station Type Date Time Source
KOLE METAR 2021/03/05 00:35 UTC NOAA

KOLE 050035Z AUTO 31009G16KT 10SM SCT027 M08/M13 A3000 RMK AO2


Station Type Date Time Source
KOLE Decoded METAR 2021/03/05 00:35 UTC NOAA

Olean Municipal, NY, United States (KOLE) 42-14N 078-22W
Mar 04, 2021 - 07:35 PM EST / 2021.03.05 0035 UTC
Wind: from the NW (310 degrees) at 10 MPH (9 KT) gusting to 18 MPH (16 KT):0
Visibility: 10 mile(s):0
Sky conditions: partly cloudy
Temperature: 17 F (-8 C)
Windchill: 5 F (-15 C):1
Dew Point: 8 F (-13 C)
Relative Humidity: 67%
Pressure (altimeter): 30 in. Hg (1015 hPa)
ob: KOLE 050035Z AUTO 31009G16KT 10SM SCT027 M08/M13 A3000 RMK AO2
cycle: 0

Station Type Date Time Source
KOLE TAF UTC NOAA

Error!

Example: see airport list